Time;durP1;ratioP1;P1;durP2;ratioP2;P2;SDS_P1;SDS_P2;PMS_P1;PMS_P2;Temp;Humidity;BMP_temperature;BMP_pressure;BME280_temperature;BME280_humidity;BME280_pressure;Samples;Min_cycle;Max_cycle;Signal;HPM_P1;HPM_P2
2021/08/01 00:00:33;;;;;;;0.35;0.35;;;20.20;99.90;;;;;;5091163;28;20186;-77
2021/08/01 00:02:59;;;;;;;0.10;0.10;;;20.20;99.90;;;;;;5092044;28;20195;-77
2021/08/01 00:05:25;;;;;;;1.38;0.82;;;20.20;99.90;;;;;;5083101;28;20196;-78
2021/08/01 00:07:51;;;;;;;0.00;0.00;;;20.30;99.90;;;;;;5072850;28;20171;-76
2021/08/01 00:10:17;;;;;;;0.03;0.03;;;20.40;99.90;;;;;;5079878;28;20184;-78
2021/08/01 00:12:43;;;;;;;0.10;0.10;;;20.40;99.90;;;;;;5092642;28;20657;-77
2021/08/01 00:15:11;;;;;;;0.10;0.10;;;20.40;99.90;;;;;;5092759;28;20171;-77
2021/08/01 00:17:37;;;;;;;0.30;0.30;;;20.50;99.90;;;;;;5088437;28;20266;-76
2021/08/01 00:20:04;;;;;;;0.10;0.10;;;20.40;99.90;;;;;;5072513;28;20157;-78
2021/08/01 00:22:30;;;;;;;0.08;0.08;;;20.30;99.90;;;;;;5089580;28;20187;-78
2021/08/01 00:24:57;;;;;;;0.00;0.00;;;20.30;99.90;;;;;;5092460;28;20196;-77
2021/08/01 00:27:23;;;;;;;0.00;0.00;;;20.30;99.90;;;;;;5092535;28;20172;-77
2021/08/01 00:29:49;;;;;;;0.22;0.22;;;20.20;99.90;;;;;;5092789;28;20164;-77
2021/08/01 00:32:15;;;;;;;5.47;0.35;;;20.10;99.90;;;;;;5092517;28;20178;-78
2021/08/01 00:34:41;;;;;;;0.17;0.17;;;20.10;99.90;;;;;;5073688;28;20215;-77
2021/08/01 00:37:07;;;;;;;0.03;0.03;;;20.10;99.90;;;;;;5092445;28;20156;-77
2021/08/01 00:39:33;;;;;;;0.00;0.00;;;20.10;99.90;;;;;;5092283;28;20160;-77
2021/08/01 00:41:58;;;;;;;0.03;0.03;;;20.00;99.90;;;;;;5092441;28;20159;-77
2021/08/01 00:44:24;;;;;;;0.10;0.10;;;19.90;99.90;;;;;;5092234;28;20191;-77
2021/08/01 00:46:50;;;;;;;0.13;0.13;;;19.80;99.90;;;;;;5092115;28;20168;-77
2021/08/01 00:49:16;;;;;;;0.20;0.20;;;19.90;99.90;;;;;;5091858;28;20226;-78
2021/08/01 00:51:43;;;;;;;0.30;0.30;;;19.80;99.90;;;;;;5090769;28;20184;-77
2021/08/01 00:54:08;;;;;;;0.20;0.20;;;19.90;99.90;;;;;;5090597;28;20210;-77
2021/08/01 00:56:34;;;;;;;0.43;0.43;;;19.90;99.90;;;;;;5090262;28;20164;-77
2021/08/01 00:59:00;;;;;;;0.10;0.10;;;19.70;99.90;;;;;;5091908;28;20203;-78
2021/08/01 01:01:43;;;;;;;0.10;0.10;;;19.70;99.90;;;;;;5092055;28;20215;-77
2021/08/01 01:04:22;;;;;;;0.32;0.32;;;19.70;99.90;;;;;;5091874;28;20688;-76
2021/08/01 01:07:13;;;;;;;0.10;0.10;;;19.70;99.90;;;;;;5091856;28;20148;-78
2021/08/01 01:09:48;;;;;;;0.05;0.05;;;19.60;99.90;;;;;;5090356;28;20171;-77
2021/08/01 01:12:17;;;;;;;0.55;0.55;;;19.60;99.90;;;;;;5090413;28;20217;-77
2021/08/01 01:14:51;;;;;;;0.20;0.20;;;19.60;99.90;;;;;;5091625;28;20555;-78
2021/08/01 01:17:23;;;;;;;0.00;0.00;;;19.50;99.90;;;;;;5091405;28;20180;-77
2021/08/01 01:20:05;;;;;;;0.00;0.00;;;19.40;99.90;;;;;;5090408;28;20360;-77
2021/08/01 01:22:51;;;;;;;0.00;0.00;;;19.40;99.90;;;;;;5090214;28;20172;-78
2021/08/01 01:25:41;;;;;;;0.17;0.17;;;19.50;99.90;;;;;;5090213;28;20191;-77
2021/08/01 01:28:15;;;;;;;0.10;0.10;;;19.60;99.90;;;;;;5091589;28;20171;-78
2021/08/01 01:30:51;;;;;;;0.00;0.00;;;19.70;99.90;;;;;;5091506;28;20155;-77
2021/08/01 01:33:23;;;;;;;0.10;0.10;;;19.80;99.90;;;;;;5091429;28;20629;-77
2021/08/01 01:35:55;;;;;;;0.00;0.00;;;19.80;99.90;;;;;;5091355;28;20200;-77
2021/08/01 01:38:22;;;;;;;0.10;0.10;;;19.90;99.90;;;;;;5091241;28;20198;-77
2021/08/01 01:40:53;;;;;;;0.38;0.38;;;19.90;99.90;;;;;;5091366;28;20148;-77
2021/08/01 01:43:23;;;;;;;0.15;0.15;;;19.70;99.90;;;;;;5091197;28;20152;-75
2021/08/01 01:45:51;;;;;;;0.10;0.10;;;19.60;99.90;;;;;;5089783;28;20195;-75
2021/08/01 01:48:17;;;;;;;0.20;0.20;;;19.40;99.90;;;;;;5090736;28;20214;-77
2021/08/01 01:50:43;;;;;;;0.25;0.25;;;19.10;99.90;;;;;;5089837;28;20176;-76
2021/08/01 01:53:10;;;;;;;0.20;0.20;;;19.10;99.90;;;;;;5089766;28;20249;-75
2021/08/01 01:55:38;;;;;;;0.63;0.25;;;18.90;99.90;;;;;;5089583;28;20235;-76
2021/08/01 01:58:06;;;;;;;0.22;0.22;;;18.70;99.90;;;;;;5090813;28;20188;-76
2021/08/01 02:00:32;;;;;;;0.00;0.00;;;18.60;99.90;;;;;;5089564;28;20172;-76
2021/08/01 02:02:57;;;;;;;1.23;0.93;;;18.80;99.90;;;;;;5089533;28;20210;-77
2021/08/01 02:05:23;;;;;;;0.20;0.20;;;18.90;99.90;;;;;;5090691;28;20192;-76
2021/08/01 02:07:49;;;;;;;0.17;0.17;;;18.70;99.90;;;;;;5089842;28;20543;-75
2021/08/01 02:10:29;;;;;;;0.03;0.03;;;18.50;99.90;;;;;;5090648;28;20167;-76
2021/08/01 02:12:57;;;;;;;0.00;0.00;;;18.60;99.90;;;;;;5090628;28;20156;-76
2021/08/01 02:15:29;;;;;;;0.82;0.40;;;18.50;99.90;;;;;;5090488;28;20187;-80
2021/08/01 02:18:05;;;;;;;0.13;0.13;;;18.30;99.90;;;;;;5088939;28;20200;-81
2021/08/01 02:20:42;;;;;;;0.10;0.10;;;17.70;99.90;;;;;;5089042;28;20168;-80
2021/08/01 02:23:12;;;;;;;1.17;1.17;;;17.50;99.90;;;;;;5090395;28;20524;-80
2021/08/01 02:25:39;;;;;;;0.15;0.15;;;17.50;99.90;;;;;;5089141;28;20191;-79
2021/08/01 02:28:07;;;;;;;0.70;0.43;;;17.40;99.90;;;;;;5090253;28;20160;-80
2021/08/01 02:30:35;;;;;;;0.10;0.10;;;17.40;99.90;;;;;;5090275;28;20207;-79
2021/08/01 02:33:01;;;;;;;0.10;0.10;;;17.50;99.90;;;;;;5090158;28;20152;-78
2021/08/01 02:35:30;;;;;;;0.00;0.00;;;17.50;99.90;;;;;;5088723;28;20203;-79
2021/08/01 02:37:59;;;;;;;0.43;0.43;;;17.60;99.90;;;;;;5090016;28;20192;-78
2021/08/01 02:40:28;;;;;;;0.73;0.73;;;17.50;99.90;;;;;;5090209;28;20156;-79
2021/08/01 02:42:55;;;;;;;0.00;0.00;;;17.60;99.90;;;;;;5089990;28;20156;-79
2021/08/01 02:45:22;;;;;;;0.30;0.30;;;17.70;99.90;;;;;;5089806;28;20184;-79
2021/08/01 02:47:50;;;;;;;0.40;0.40;;;17.80;99.90;;;;;;5089934;28;20160;-79
2021/08/01 02:50:18;;;;;;;0.43;0.43;;;17.90;99.90;;;;;;5088565;28;20302;-80
2021/08/01 02:52:58;;;;;;;0.50;0.50;;;17.90;99.90;;;;;;5089826;28;20152;-79
2021/08/01 02:55:27;;;;;;;0.10;0.10;;;17.80;99.90;;;;;;5089720;28;20191;-79
2021/08/01 02:57:54;;;;;;;0.28;0.28;;;17.80;99.90;;;;;;5088303;28;20199;-78
2021/08/01 03:00:22;;;;;;;0.00;0.00;;;17.70;99.90;;;;;;5088522;28;20168;-79
2021/08/01 03:02:49;;;;;;;0.00;0.00;;;17.70;99.90;;;;;;5088394;28;20164;-79
2021/08/01 03:05:16;;;;;;;0.10;0.10;;;17.50;99.90;;;;;;5089538;28;20553;-79
2021/08/01 03:07:43;;;;;;;1.27;0.47;;;17.50;99.90;;;;;;5089698;28;20164;-79
2021/08/01 03:10:10;;;;;;;0.10;0.10;;;17.50;99.90;;;;;;5088163;28;20171;-79
2021/08/01 03:12:44;;;;;;;0.30;0.30;;;17.50;99.90;;;;;;5089455;28;20167;-78
2021/08/01 03:15:10;;;;;;;0.20;0.20;;;17.50;99.90;;;;;;5088238;28;20210;-79
2021/08/01 03:17:36;;;;;;;0.20;0.20;;;17.80;99.90;;;;;;5088995;28;20258;-79
2021/08/01 03:20:04;;;;;;;0.75;0.10;;;17.90;99.90;;;;;;5088075;28;20725;-79
2021/08/01 03:22:30;;;;;;;0.10;0.10;;;18.00;99.90;;;;;;5089281;28;20190;-79
2021/08/01 03:24:56;;;;;;;0.25;0.25;;;18.20;99.90;;;;;;5088669;28;20551;-77
2021/08/01 03:27:22;;;;;;;0.20;0.20;;;18.20;99.90;;;;;;5089317;28;20168;-78
2021/08/01 03:29:48;;;;;;;0.52;0.52;;;18.30;99.90;;;;;;5089368;28;20235;-78
2021/08/01 03:32:13;;;;;;;0.10;0.10;;;18.30;99.90;;;;;;5087962;28;20194;-79
2021/08/01 03:34:39;;;;;;;0.20;0.20;;;18.00;99.90;;;;;;5089321;28;20192;-78
2021/08/01 03:37:05;;;;;;;0.45;0.45;;;18.10;99.90;;;;;;5089415;28;20156;-79
2021/08/01 03:39:34;;;;;;;0.50;0.50;;;18.10;99.90;;;;;;5089219;28;20199;-77
2021/08/01 03:42:01;;;;;;;1.17;1.17;;;18.00;99.90;;;;;;5089170;28;20161;-78
2021/08/01 03:44:26;;;;;;;0.10;0.10;;;17.90;99.90;;;;;;5089205;28;20192;-78
2021/08/01 03:46:52;;;;;;;4.18;1.25;;;18.00;99.90;;;;;;5089137;28;20156;-78
2021/08/01 03:49:18;;;;;;;0.95;0.32;;;18.20;99.90;;;;;;5087748;28;20231;-79
2021/08/01 03:51:44;;;;;;;0.43;0.43;;;18.20;99.90;;;;;;5089210;28;20210;-77
2021/08/01 03:54:10;;;;;;;0.30;0.30;;;18.00;99.90;;;;;;5087932;28;20199;-78
2021/08/01 03:56:44;;;;;;;0.20;0.20;;;18.10;99.90;;;;;;5087798;28;20167;-79
2021/08/01 03:59:11;;;;;;;0.35;0.35;;;18.20;99.90;;;;;;5089038;28;20184;-77
2021/08/01 04:01:38;;;;;;;0.22;0.22;;;18.30;99.90;;;;;;5089079;28;20156;-77
2021/08/01 04:04:05;;;;;;;0.68;0.68;;;18.30;99.90;;;;;;5087633;28;20164;-78
2021/08/01 04:06:32;;;;;;;0.10;0.10;;;18.20;99.90;;;;;;5089009;28;20157;-77
2021/08/01 04:08:59;;;;;;;0.35;0.35;;;18.00;99.90;;;;;;5089007;28;20160;-78
2021/08/01 04:11:26;;;;;;;0.10;0.10;;;18.10;99.90;;;;;;5088873;28;20156;-77
2021/08/01 04:13:52;;;;;;;0.40;0.25;;;18.10;99.90;;;;;;5087524;28;20183;-77
2021/08/01 04:16:18;;;;;;;1.33;1.23;;;18.30;99.90;;;;;;5088920;28;20179;-77
2021/08/01 04:18:44;;;;;;;0.35;0.35;;;18.40;99.90;;;;;;5084040;28;20275;-78
2021/08/01 04:21:11;;;;;;;0.17;0.17;;;18.50;99.90;;;;;;5075365;28;20164;-76
2021/08/01 04:23:39;;;;;;;0.10;0.10;;;18.60;99.90;;;;;;5088898;28;20164;-77
2021/08/01 04:26:06;;;;;;;1.17;0.98;;;18.30;99.90;;;;;;5088705;28;20199;-77
2021/08/01 04:28:33;;;;;;;0.70;0.38;;;18.30;99.90;;;;;;5088836;28;20731;-77
2021/08/01 04:30:59;;;;;;;0.05;0.05;;;18.20;99.90;;;;;;5091035;28;20198;-77
2021/08/01 04:33:25;;;;;;;1.20;0.73;;;18.20;99.90;;;;;;5092524;28;20155;-77
2021/08/01 04:35:51;;;;;;;0.35;0.25;;;18.20;99.90;;;;;;5092364;28;20192;-77
2021/08/01 04:38:17;;;;;;;0.30;0.30;;;18.30;99.90;;;;;;5091044;28;20253;-77
2021/08/01 04:40:43;;;;;;;0.90;0.85;;;18.30;99.90;;;;;;5092335;28;20154;-77
2021/08/01 04:43:09;;;;;;;0.00;0.00;;;18.10;99.90;;;;;;5092379;28;20235;-78
2021/08/01 04:45:35;;;;;;;0.40;0.40;;;18.20;99.90;;;;;;5092178;28;20191;-78
2021/08/01 04:48:01;;;;;;;0.40;0.40;;;18.50;99.90;;;;;;5092165;28;20171;-78
2021/08/01 04:50:27;;;;;;;0.32;0.32;;;18.60;99.90;;;;;;5090685;28;20593;-78
2021/08/01 04:52:53;;;;;;;0.47;0.47;;;18.50;99.90;;;;;;5092156;28;20254;-78
2021/08/01 04:55:20;;;;;;;0.43;0.43;;;18.50;99.90;;;;;;5092092;28;20249;-77
2021/08/01 04:57:46;;;;;;;0.30;0.30;;;18.50;99.90;;;;;;5091883;28;20184;-78
2021/08/01 05:00:13;;;;;;;0.47;0.43;;;18.70;99.90;;;;;;5090704;28;20172;-77
2021/08/01 05:02:39;;;;;;;0.40;0.40;;;18.70;99.90;;;;;;5091979;28;20164;-78
2021/08/01 05:05:06;;;;;;;0.13;0.13;;;18.80;99.90;;;;;;5091851;28;20191;-78
2021/08/01 05:07:32;;;;;;;0.95;0.60;;;19.00;99.90;;;;;;5091867;28;20165;-77
2021/08/01 05:09:59;;;;;;;0.10;0.10;;;19.50;99.90;;;;;;5091811;28;20184;-79
2021/08/01 05:12:26;;;;;;;0.32;0.32;;;19.70;99.90;;;;;;5090491;28;20194;-79
2021/08/01 05:14:52;;;;;;;0.20;0.20;;;19.80;99.90;;;;;;5091675;28;20199;-77
2021/08/01 05:17:19;;;;;;;1.27;1.20;;;19.70;99.90;;;;;;5088828;28;20168;-77
2021/08/01 05:19:46;;;;;;;0.10;0.10;;;19.40;99.90;;;;;;5088645;28;20164;-76
2021/08/01 05:22:12;;;;;;;0.35;0.35;;;19.40;99.90;;;;;;5091425;28;20214;-78
2021/08/01 05:24:40;;;;;;;0.63;0.63;;;19.50;99.90;;;;;;5091508;28;20187;-78
2021/08/01 05:27:06;;;;;;;0.65;0.63;;;19.20;99.90;;;;;;5090224;28;20171;-77
2021/08/01 05:29:32;;;;;;;0.50;0.50;;;19.20;99.90;;;;;;5090138;28;20179;-76
2021/08/01 05:31:59;;;;;;;0.10;0.10;;;19.30;99.90;;;;;;5091508;28;20187;-78
2021/08/01 05:34:24;;;;;;;0.28;0.28;;;19.20;99.90;;;;;;5091331;28;20227;-79
2021/08/01 05:36:51;;;;;;;3.30;0.98;;;19.20;99.90;;;;;;5091403;28;20160;-76
2021/08/01 05:39:17;;;;;;;0.55;0.38;;;19.20;99.90;;;;;;5089908;28;20218;-78
2021/08/01 05:41:43;;;;;;;0.35;0.35;;;19.10;99.90;;;;;;5089822;28;20160;-77
2021/08/01 05:44:09;;;;;;;0.20;0.20;;;19.20;99.90;;;;;;5091118;28;20192;-76
2021/08/01 05:46:35;;;;;;;0.25;0.25;;;19.40;99.90;;;;;;5089800;28;20191;-78
2021/08/01 05:49:01;;;;;;;0.43;0.25;;;19.70;99.90;;;;;;5089475;28;20254;-78
2021/08/01 05:51:27;;;;;;;0.17;0.17;;;20.10;99.90;;;;;;5089829;28;20175;-78
2021/08/01 05:53:53;;;;;;;0.35;0.15;;;19.90;99.90;;;;;;5090786;28;20156;-79
2021/08/01 05:56:19;;;;;;;0.10;0.10;;;19.90;99.90;;;;;;5089660;28;20179;-77
2021/08/01 05:58:44;;;;;;;0.17;0.17;;;20.20;99.90;;;;;;5090662;28;20194;-77
2021/08/01 06:01:13;;;;;;;0.30;0.25;;;20.00;99.90;;;;;;5089456;28;20171;-77
2021/08/01 06:03:40;;;;;;;0.43;0.43;;;20.20;99.90;;;;;;5090919;28;20154;-77
2021/08/01 06:06:13;;;;;;;0.00;0.00;;;20.20;99.90;;;;;;5090626;28;20198;-77
2021/08/01 06:08:40;;;;;;;0.20;0.20;;;20.00;99.90;;;;;;5089329;28;20172;-78
2021/08/01 06:11:07;;;;;;;0.47;0.47;;;20.10;99.90;;;;;;5089450;28;20172;-78
2021/08/01 06:13:33;;;;;;;0.10;0.10;;;20.10;99.90;;;;;;5089204;28;20231;-78
2021/08/01 06:15:59;;;;;;;0.20;0.15;;;20.20;99.90;;;;;;5090650;28;20198;-78
2021/08/01 06:18:26;;;;;;;0.45;0.45;;;20.60;99.90;;;;;;5083998;28;20188;-78
2021/08/01 06:21:21;;;;;;;0.00;0.00;;;21.00;99.90;;;;;;5074481;28;20160;-77
2021/08/01 06:23:52;;;;;;;0.17;0.17;;;21.30;99.90;;;;;;5038965;28;20193;-77
2021/08/01 06:26:20;;;;;;;0.40;0.40;;;21.50;99.90;;;;;;5048353;28;20295;-77
2021/08/01 06:28:46;;;;;;;0.25;0.17;;;22.10;99.90;;;;;;5048414;28;20244;-78
2021/08/01 06:31:13;;;;;;;1.08;0.35;;;22.40;99.90;;;;;;5048174;28;20171;-77
2021/08/01 06:33:40;;;;;;;1.95;0.30;;;22.60;99.90;;;;;;5047979;28;20195;-78
2021/08/01 06:36:08;;;;;;;0.10;0.10;;;22.30;99.90;;;;;;5047904;28;20216;-77
2021/08/01 06:38:35;;;;;;;0.30;0.30;;;22.10;99.90;;;;;;5031287;28;20207;-76
2021/08/01 06:41:00;;;;;;;0.50;0.50;;;21.90;99.90;;;;;;5047877;28;20180;-77
2021/08/01 06:43:26;;;;;;;0.22;0.22;;;21.70;99.90;;;;;;5047861;28;20203;-78
2021/08/01 06:45:53;;;;;;;0.40;0.40;;;21.70;99.90;;;;;;5031317;28;20276;-77
2021/08/01 06:48:18;;;;;;;0.60;0.60;;;21.80;99.90;;;;;;5047615;28;20181;-77
2021/08/01 06:50:44;;;;;;;0.20;0.20;;;21.80;99.90;;;;;;5047726;28;20326;-78
2021/08/01 06:53:10;;;;;;;0.28;0.28;;;21.60;99.90;;;;;;5047131;28;20271;-77
2021/08/01 06:55:36;;;;;;;0.88;0.88;;;21.30;99.90;;;;;;5047636;28;20200;-77
2021/08/01 06:58:02;;;;;;;0.20;0.20;;;21.40;99.90;;;;;;5047523;28;20271;-78
2021/08/01 07:00:28;;;;;;;0.35;0.35;;;21.50;99.90;;;;;;5061557;28;20184;-75
2021/08/01 07:02:55;;;;;;;0.93;0.68;;;21.50;99.90;;;;;;5069562;28;20160;-77
2021/08/01 07:05:22;;;;;;;0.20;0.20;;;21.50;99.90;;;;;;5068186;28;20196;-78
2021/08/01 07:07:49;;;;;;;0.20;0.20;;;21.70;99.90;;;;;;5068092;28;20179;-77
2021/08/01 07:10:16;;;;;;;0.10;0.10;;;21.80;99.90;;;;;;5069733;28;20220;-76
2021/08/01 07:12:42;;;;;;;0.75;0.75;;;21.20;99.90;;;;;;5087539;28;20176;-77
2021/08/01 07:15:22;;;;;;;0.82;0.82;;;20.70;99.90;;;;;;5089387;28;20253;-78
2021/08/01 07:17:48;;;;;;;0.20;0.20;;;20.50;99.90;;;;;;5089265;28;20233;-76
2021/08/01 07:20:14;;;;;;;0.10;0.10;;;20.50;99.90;;;;;;5089257;28;20178;-75
2021/08/01 07:22:41;;;;;;;1.13;0.73;;;20.70;99.90;;;;;;5089207;28;20191;-77
2021/08/01 07:25:09;;;;;;;0.20;0.20;;;21.10;99.90;;;;;;5088004;28;20201;-76
2021/08/01 07:27:35;;;;;;;0.55;0.55;;;21.50;99.90;;;;;;5089072;28;20171;-78
2021/08/01 07:30:01;;;;;;;0.30;0.30;;;21.80;99.90;;;;;;5089363;28;20159;-78
2021/08/01 07:32:27;;;;;;;0.28;0.28;;;22.20;99.90;;;;;;5088085;28;20197;-77
2021/08/01 07:34:53;;;;;;;0.25;0.25;;;22.00;99.90;;;;;;5089163;28;20179;-77
2021/08/01 07:37:19;;;;;;;0.35;0.17;;;22.10;99.90;;;;;;5087947;28;20179;-77
2021/08/01 07:39:45;;;;;;;0.90;0.88;;;22.40;99.90;;;;;;5087819;28;20159;-77
2021/08/01 07:42:12;;;;;;;0.32;0.32;;;22.20;99.90;;;;;;5087897;28;20254;-77
2021/08/01 07:47:19;;;;;;;0.52;0.52;;;22.90;99.90;;;;;;5089155;28;20159;-76
2021/08/01 07:49:46;;;;;;;1.25;1.25;;;22.60;99.90;;;;;;5087653;28;20219;-78
2021/08/01 07:52:12;;;;;;;0.47;0.40;;;22.40;99.90;;;;;;5087783;28;20155;-77
2021/08/01 07:54:39;;;;;;;0.40;0.30;;;23.00;99.90;;;;;;5087672;28;20194;-77
2021/08/01 07:57:21;;;;;;;0.43;0.43;;;22.70;99.90;;;;;;5089136;28;20167;-78
2021/08/01 07:59:47;;;;;;;0.63;0.63;;;24.00;99.90;;;;;;5088928;28;20163;-76
2021/08/01 08:02:13;;;;;;;0.10;0.10;;;23.40;99.90;;;;;;5089016;28;20160;-77
2021/08/01 08:04:39;;;;;;;0.20;0.20;;;23.80;99.90;;;;;;5089016;28;20552;-76
2021/08/01 08:07:04;;;;;;;0.30;0.30;;;23.20;99.90;;;;;;5091612;28;20159;-75
2021/08/01 08:09:30;;;;;;;1.13;0.90;;;23.80;99.90;;;;;;5093029;28;20190;-76
2021/08/01 08:11:56;;;;;;;0.35;0.35;;;24.00;99.90;;;;;;5080866;28;20243;-76
2021/08/01 08:14:22;;;;;;;0.20;0.20;;;24.00;99.90;;;;;;5071576;28;20215;-77
2021/08/01 08:16:48;;;;;;;0.50;0.50;;;25.20;99.90;;;;;;5082776;28;20238;-76
2021/08/01 08:19:14;;;;;;;0.57;0.40;;;24.30;99.90;;;;;;5081171;28;20195;-77
2021/08/01 08:21:40;;;;;;;0.32;0.32;;;24.60;99.90;;;;;;5090531;28;20235;-76
2021/08/01 08:24:06;;;;;;;0.45;0.30;;;25.60;99.90;;;;;;5092412;28;20163;-77
2021/08/01 08:26:32;;;;;;;1.13;0.57;;;26.00;99.90;;;;;;5091136;28;20171;-76
2021/08/01 08:28:58;;;;;;;0.88;0.63;;;26.40;99.90;;;;;;5091013;28;20159;-77
2021/08/01 08:31:24;;;;;;;0.70;0.57;;;26.10;99.90;;;;;;5090764;28;20175;-76
2021/08/01 08:33:50;;;;;;;0.20;0.20;;;25.90;99.90;;;;;;5091934;28;20156;-76
2021/08/01 08:36:15;;;;;;;0.43;0.43;;;26.00;99.90;;;;;;5092250;28;20194;-75
2021/08/01 08:38:41;;;;;;;0.77;0.77;;;25.20;99.90;;;;;;5092072;28;20209;-74
2021/08/01 08:41:13;;;;;;;0.55;0.55;;;24.20;99.90;;;;;;5092142;28;20287;-75
2021/08/01 08:43:40;;;;;;;0.35;0.35;;;24.00;99.90;;;;;;5089966;28;20160;-75
2021/08/01 08:46:09;;;;;;;0.28;0.28;;;23.60;99.90;;;;;;5092048;28;20288;-77
2021/08/01 08:48:37;;;;;;;0.10;0.10;;;23.50;99.90;;;;;;5090473;28;20221;-75
2021/08/01 08:51:08;;;;;;;0.50;0.50;;;24.40;99.90;;;;;;5090649;28;20265;-74
2021/08/01 08:53:39;;;;;;;0.20;0.20;;;24.70;99.90;;;;;;5076359;28;20239;-76
2021/08/01 08:56:07;;;;;;;0.30;0.30;;;24.70;99.90;;;;;;5070640;28;20336;-75
2021/08/01 08:58:33;;;;;;;2.17;1.38;;;24.70;99.90;;;;;;5070445;28;20196;-76
2021/08/01 09:00:59;;;;;;;0.52;0.52;;;24.60;99.90;;;;;;5071852;28;20163;-75
2021/08/01 09:03:25;;;;;;;0.30;0.30;;;24.20;99.90;;;;;;5072990;28;20244;-76
2021/08/01 09:05:56;;;;;;;0.57;0.43;;;24.00;99.90;;;;;;5071430;28;20247;-77
2021/08/01 09:08:24;;;;;;;0.30;0.30;;;24.00;99.90;;;;;;5071721;28;20154;-74
2021/08/01 09:10:50;;;;;;;0.55;0.55;;;24.00;99.90;;;;;;5071640;28;20232;-75
2021/08/01 09:13:52;;;;;;;0.65;0.65;;;24.00;99.90;;;;;;5070350;28;20164;-76
2021/08/01 09:16:20;;;;;;;1.23;1.15;;;24.70;99.90;;;;;;5082559;28;20174;-76
2021/08/01 09:18:47;;;;;;;0.40;0.40;;;25.00;99.90;;;;;;5090186;28;20191;-76
2021/08/01 09:21:33;;;;;;;2.97;0.82;;;24.80;99.90;;;;;;5089977;28;20163;-75
2021/08/01 09:24:00;;;;;;;0.40;0.40;;;24.70;99.90;;;;;;5089978;28;20159;-76
2021/08/01 09:26:47;;;;;;;0.32;0.32;;;24.80;99.90;;;;;;5089759;28;20182;-77
2021/08/01 09:29:14;;;;;;;2.67;0.28;;;25.00;99.90;;;;;;5084485;28;20176;-76
2021/08/01 09:31:41;;;;;;;0.45;0.45;;;25.30;99.90;;;;;;5083793;28;20189;-77
2021/08/01 09:34:33;;;;;;;1.08;0.65;;;25.50;99.90;;;;;;5091099;28;20209;-76
2021/08/01 09:37:03;;;;;;;0.52;0.52;;;25.40;99.90;;;;;;5089701;28;20186;-76
2021/08/01 09:39:38;;;;;;;1.10;0.73;;;25.50;99.90;;;;;;5089959;28;20560;-76
2021/08/01 09:42:04;;;;;;;3.38;0.40;;;25.30;99.90;;;;;;5089606;28;20156;-76
2021/08/01 09:44:30;;;;;;;2.38;1.20;;;25.00;99.90;;;;;;5091024;28;20259;-75
2021/08/01 09:46:57;;;;;;;3.70;1.05;;;24.50;99.90;;;;;;5088897;28;20160;-76
2021/08/01 09:49:26;;;;;;;0.70;0.70;;;24.40;99.90;;;;;;5089591;28;20223;-76
2021/08/01 09:51:54;;;;;;;0.45;0.45;;;24.10;99.90;;;;;;5090947;28;20206;-76
2021/08/01 09:54:23;;;;;;;0.60;0.60;;;23.80;99.90;;;;;;5089506;28;20214;-77
2021/08/01 09:56:56;;;;;;;0.57;0.57;;;23.70;99.90;;;;;;5088895;28;20222;-77
2021/08/01 09:59:25;;;;;;;0.57;0.57;;;23.60;99.90;;;;;;5090515;28;20199;-76
2021/08/01 10:01:57;;;;;;;0.65;0.65;;;23.40;99.90;;;;;;5090658;28;20159;-77
2021/08/01 10:04:26;;;;;;;0.70;0.70;;;23.50;99.90;;;;;;5090579;28;20194;-76
2021/08/01 10:07:02;;;;;;;0.15;0.15;;;23.80;99.90;;;;;;5089801;28;20148;-78
2021/08/01 10:09:27;;;;;;;0.73;0.73;;;23.90;99.90;;;;;;5090553;28;20167;-75
2021/08/01 10:11:54;;;;;;;0.70;0.70;;;23.90;99.90;;;;;;5090636;28;20184;-78
2021/08/01 10:14:22;;;;;;;0.28;0.28;;;23.70;99.90;;;;;;5089101;28;20210;-77
2021/08/01 10:16:48;;;;;;;4.13;0.65;;;23.40;99.90;;;;;;5089806;28;20186;-74
2021/08/01 10:19:14;;;;;;;1.08;0.98;;;23.10;99.90;;;;;;5088672;28;20210;-77
2021/08/01 10:21:43;;;;;;;0.75;0.60;;;22.70;99.90;;;;;;5089128;28;20167;-76
2021/08/01 10:24:14;;;;;;;0.85;0.80;;;22.10;99.90;;;;;;5090265;28;20155;-76
2021/08/01 10:26:46;;;;;;;1.05;1.05;;;22.00;99.90;;;;;;5090094;28;20181;-76
2021/08/01 10:29:17;;;;;;;0.63;0.63;;;22.00;99.90;;;;;;5088717;28;20235;-76
2021/08/01 10:31:50;;;;;;;1.50;0.65;;;22.00;99.90;;;;;;5088530;28;20167;-75
2021/08/01 10:34:53;;;;;;;1.08;0.88;;;21.80;99.90;;;;;;5090030;28;20187;-76
2021/08/01 10:37:37;;;;;;;0.73;0.73;;;21.40;99.90;;;;;;5089727;28;20163;-76
2021/08/01 10:40:06;;;;;;;0.43;0.40;;;21.30;99.90;;;;;;5088264;28;20207;-76
2021/08/01 10:42:33;;;;;;;0.38;0.38;;;21.10;99.90;;;;;;5089817;28;20171;-76
2021/08/01 10:44:59;;;;;;;0.93;0.93;;;21.00;99.90;;;;;;5089770;28;20191;-75
2021/08/01 10:47:27;;;;;;;1.10;0.63;;;20.90;99.90;;;;;;5088545;28;20198;-76
2021/08/01 10:49:54;;;;;;;0.43;0.43;;;20.90;99.90;;;;;;5089061;28;20211;-76
2021/08/01 10:52:20;;;;;;;0.28;0.28;;;20.80;99.90;;;;;;5089738;28;20163;-77
2021/08/01 10:54:59;;;;;;;1.25;0.38;;;20.80;99.90;;;;;;5088142;28;20191;-77
2021/08/01 10:57:27;;;;;;;0.73;0.73;;;20.70;99.90;;;;;;5089439;28;20156;-78
2021/08/01 10:59:59;;;;;;;2.60;1.75;;;20.50;99.90;;;;;;5088781;28;20155;-77
2021/08/01 11:02:26;;;;;;;0.05;0.05;;;20.50;99.90;;;;;;5088398;28;20357;-78
2021/08/01 11:04:53;;;;;;;0.50;0.50;;;20.40;99.90;;;;;;5087112;28;20195;-78
2021/08/01 11:07:27;;;;;;;0.65;0.65;;;20.30;99.90;;;;;;5088264;28;20179;-77
2021/08/01 11:10:12;;;;;;;0.20;0.20;;;20.20;99.90;;;;;;5088888;28;20163;-78
2021/08/01 11:12:41;;;;;;;0.45;0.35;;;20.30;99.90;;;;;;5089423;28;20148;-78
2021/08/01 11:15:12;;;;;;;0.63;0.63;;;20.30;99.90;;;;;;5089347;28;20184;-79
2021/08/01 11:17:46;;;;;;;0.20;0.20;;;20.30;99.90;;;;;;5088093;28;20186;-78
2021/08/01 11:20:23;;;;;;;0.50;0.50;;;20.20;99.90;;;;;;5087351;28;20164;-79
2021/08/01 11:22:58;;;;;;;1.58;1.35;;;20.20;99.90;;;;;;5084798;28;20657;-79
2021/08/01 11:25:27;;;;;;;1.98;1.00;;;20.30;99.90;;;;;;5067865;28;20188;-79
2021/08/01 11:28:15;;;;;;;1.45;0.98;;;20.20;99.90;;;;;;5083671;28;20179;-79
2021/08/01 11:30:55;;;;;;;0.57;0.57;;;20.10;99.90;;;;;;5088623;28;20152;-79
2021/08/01 11:33:39;;;;;;;0.90;0.60;;;20.10;99.90;;;;;;5068983;28;20161;-80
2021/08/01 11:36:17;;;;;;;1.85;1.65;;;20.00;99.90;;;;;;5069066;28;20256;-76
2021/08/01 11:38:50;;;;;;;0.30;0.30;;;19.90;99.90;;;;;;5067552;28;20683;-78
2021/08/01 11:41:33;;;;;;;0.65;0.65;;;19.20;99.90;;;;;;5068350;28;20160;-78
2021/08/01 11:44:06;;;;;;;1.73;1.63;;;19.20;99.90;;;;;;5067798;28;20175;-80
2021/08/01 11:49:20;;;;;;;0.10;0.10;;;18.90;99.90;;;;;;5068836;28;20241;-80
2021/08/01 11:51:48;;;;;;;1.63;1.52;;;19.00;99.90;;;;;;5067112;28;20183;-80
2021/08/01 11:54:14;;;;;;;0.32;0.32;;;19.10;99.90;;;;;;5068936;28;20181;-80
2021/08/01 11:56:41;;;;;;;0.15;0.15;;;19.00;99.90;;;;;;5068954;28;20168;-81
2021/08/01 11:59:11;;;;;;;0.80;0.80;;;19.00;99.90;;;;;;5067522;28;20206;-81
2021/08/01 12:01:37;;;;;;;0.45;0.45;;;18.80;99.90;;;;;;5067317;28;20572;-81
2021/08/01 12:04:11;;;;;;;0.63;0.63;;;18.70;99.90;;;;;;5067420;28;20252;-81
2021/08/01 12:06:42;;;;;;;0.68;0.68;;;18.80;99.90;;;;;;5068900;28;20157;-82
2021/08/01 12:09:21;;;;;;;0.95;0.95;;;19.00;99.90;;;;;;5067518;28;20169;-80
2021/08/01 12:11:50;;;;;;;0.32;0.32;;;19.00;99.90;;;;;;5067618;28;20173;-81
2021/08/01 12:14:16;;;;;;;0.28;0.28;;;18.90;99.90;;;;;;5068335;28;20204;-81
2021/08/01 12:16:54;;;;;;;1.05;1.05;;;18.80;99.90;;;;;;5068751;28;20161;-80
2021/08/01 12:19:22;;;;;;;0.63;0.63;;;19.00;99.90;;;;;;5078148;28;20222;-80
2021/08/01 12:21:51;;;;;;;0.00;0.00;;;19.00;99.90;;;;;;5087539;28;20190;-80
2021/08/01 12:24:29;;;;;;;1.25;1.25;;;18.90;99.90;;;;;;5088086;28;20184;-81
2021/08/01 12:27:06;;;;;;;0.50;0.50;;;19.10;99.90;;;;;;5087363;28;20180;-80
2021/08/01 12:30:01;;;;;;;0.08;0.08;;;19.20;99.90;;;;;;5088731;28;20155;-80
2021/08/01 12:32:33;;;;;;;0.28;0.28;;;19.30;99.90;;;;;;5072298;28;20193;-80
2021/08/01 12:35:14;;;;;;;0.38;0.38;;;19.30;99.90;;;;;;5079356;28;20200;-79
2021/08/01 12:38:03;;;;;;;0.30;0.30;;;19.30;99.90;;;;;;5088116;28;20175;-79
2021/08/01 12:40:30;;;;;;;1.20;1.10;;;19.30;99.90;;;;;;5070435;28;20180;-78
2021/08/01 12:42:58;;;;;;;0.20;0.20;;;19.30;99.90;;;;;;5068489;28;20189;-78
2021/08/01 12:45:34;;;;;;;0.55;0.40;;;19.50;99.90;;;;;;5066364;28;20272;-78
2021/08/01 12:48:02;;;;;;;1.67;1.58;;;19.40;99.90;;;;;;5067278;28;20180;-78
2021/08/01 12:50:30;;;;;;;0.57;0.57;;;19.60;99.90;;;;;;5068289;28;20267;-77
2021/08/01 12:52:57;;;;;;;0.40;0.40;;;19.80;99.90;;;;;;5071960;28;20157;-77
2021/08/01 12:55:24;;;;;;;0.75;0.75;;;20.20;99.90;;;;;;5070131;28;20662;-77
2021/08/01 12:58:10;;;;;;;14.20;1.75;;;20.70;99.90;;;;;;5090633;28;20207;-77
2021/08/01 13:00:55;;;;;;;2.00;1.38;;;20.60;99.90;;;;;;5092002;28;20144;-76
2021/08/01 13:03:34;;;;;;;0.40;0.40;;;19.70;99.90;;;;;;5090678;28;20171;-77